sensor_id;sensor_type;location;lat;lon;timestamp;P1;durP1;ratioP1;P2;durP2;ratioP2
52742;SDS011;55583;53.012;6.556;2022-10-16T00:00:18;15.52;;;4.38;;
52742;SDS011;55583;53.012;6.556;2022-10-16T00:02:43;13.30;;;3.50;;
52742;SDS011;55583;53.012;6.556;2022-10-16T00:05:09;11.82;;;3.60;;
52742;SDS011;55583;53.012;6.556;2022-10-16T00:07:35;9.50;;;3.55;;
52742;SDS011;55583;53.012;6.556;2022-10-16T00:10:00;13.07;;;2.85;;
52742;SDS011;55583;53.012;6.556;2022-10-16T00:12:26;8.23;;;3.70;;
52742;SDS011;55583;53.012;6.556;2022-10-16T00:14:52;15.32;;;3.60;;
52742;SDS011;55583;53.012;6.556;2022-10-16T00:17:18;15.52;;;3.80;;
52742;SDS011;55583;53.012;6.556;2022-10-16T00:19:43;7.40;;;3.30;;
52742;SDS011;55583;53.012;6.556;2022-10-16T00:22:09;11.90;;;3.72;;
52742;SDS011;55583;53.012;6.556;2022-10-16T00:24:34;8.98;;;3.72;;
52742;SDS011;55583;53.012;6.556;2022-10-16T00:27:01;13.40;;;3.30;;
52742;SDS011;55583;53.012;6.556;2022-10-16T00:29:27;10.25;;;3.60;;
52742;SDS011;55583;53.012;6.556;2022-10-16T00:31:52;9.77;;;2.53;;
52742;SDS011;55583;53.012;6.556;2022-10-16T00:34:18;11.80;;;3.60;;
52742;SDS011;55583;53.012;6.556;2022-10-16T00:36:44;13.77;;;3.05;;
52742;SDS011;55583;53.012;6.556;2022-10-16T00:39:09;22.00;;;3.50;;
52742;SDS011;55583;53.012;6.556;2022-10-16T00:41:35;10.98;;;2.78;;
52742;SDS011;55583;53.012;6.556;2022-10-16T00:44:02;8.27;;;2.58;;
52742;SDS011;55583;53.012;6.556;2022-10-16T00:46:48;13.13;;;3.28;;
52742;SDS011;55583;53.012;6.556;2022-10-16T00:49:15;7.75;;;2.60;;
52742;SDS011;55583;53.012;6.556;2022-10-16T00:51:45;12.23;;;3.03;;
52742;SDS011;55583;53.012;6.556;2022-10-16T00:54:15;10.00;;;2.45;;
52742;SDS011;55583;53.012;6.556;2022-10-16T00:56:45;9.88;;;2.45;;
52742;SDS011;55583;53.012;6.556;2022-10-16T00:59:26;10.65;;;2.55;;
52742;SDS011;55583;53.012;6.556;2022-10-16T01:01:54;12.80;;;3.25;;
52742;SDS011;55583;53.012;6.556;2022-10-16T01:04:21;9.68;;;2.85;;
52742;SDS011;55583;53.012;6.556;2022-10-16T01:15:25;8.90;;;2.50;;
52742;SDS011;55583;53.012;6.556;2022-10-16T01:18:15;8.25;;;2.47;;
52742;SDS011;55583;53.012;6.556;2022-10-16T01:20:59;9.13;;;2.80;;
52742;SDS011;55583;53.012;6.556;2022-10-16T01:29:16;6.97;;;1.48;;
52742;SDS011;55583;53.012;6.556;2022-10-16T01:31:59;6.53;;;2.38;;
52742;SDS011;55583;53.012;6.556;2022-10-16T01:34:35;10.23;;;2.95;;
52742;SDS011;55583;53.012;6.556;2022-10-16T01:37:07;7.50;;;2.40;;
52742;SDS011;55583;53.012;6.556;2022-10-16T01:39:37;3.30;;;2.25;;
52742;SDS011;55583;53.012;6.556;2022-10-16T01:42:07;6.57;;;2.30;;
52742;SDS011;55583;53.012;6.556;2022-10-16T01:44:36;12.25;;;2.40;;
52742;SDS011;55583;53.012;6.556;2022-10-16T01:47:03;9.27;;;2.53;;
52742;SDS011;55583;53.012;6.556;2022-10-16T01:49:31;8.82;;;2.28;;
52742;SDS011;55583;53.012;6.556;2022-10-16T01:52:02;8.10;;;2.28;;
52742;SDS011;55583;53.012;6.556;2022-10-16T01:54:31;7.45;;;2.35;;
52742;SDS011;55583;53.012;6.556;2022-10-16T01:57:00;5.63;;;2.13;;
52742;SDS011;55583;53.012;6.556;2022-10-16T01:59:29;6.80;;;2.30;;
52742;SDS011;55583;53.012;6.556;2022-10-16T02:02:01;8.63;;;2.25;;
52742;SDS011;55583;53.012;6.556;2022-10-16T02:04:45;7.07;;;2.42;;
52742;SDS011;55583;53.012;6.556;2022-10-16T02:07:18;9.75;;;2.05;;
52742;SDS011;55583;53.012;6.556;2022-10-16T02:09:44;9.73;;;2.70;;
52742;SDS011;55583;53.012;6.556;2022-10-16T02:12:12;11.43;;;2.75;;
52742;SDS011;55583;53.012;6.556;2022-10-16T02:14:44;12.80;;;3.13;;
52742;SDS011;55583;53.012;6.556;2022-10-16T02:17:10;6.50;;;2.47;;
52742;SDS011;55583;53.012;6.556;2022-10-16T02:19:38;8.00;;;2.42;;
52742;SDS011;55583;53.012;6.556;2022-10-16T02:22:04;3.97;;;2.22;;
52742;SDS011;55583;53.012;6.556;2022-10-16T02:30:25;9.48;;;2.55;;
52742;SDS011;55583;53.012;6.556;2022-10-16T02:32:52;5.75;;;2.53;;
52742;SDS011;55583;53.012;6.556;2022-10-16T02:35:21;9.85;;;2.47;;
52742;SDS011;55583;53.012;6.556;2022-10-16T02:37:48;10.30;;;2.05;;
52742;SDS011;55583;53.012;6.556;2022-10-16T02:40:15;11.68;;;2.30;;
52742;SDS011;55583;53.012;6.556;2022-10-16T02:42:41;5.03;;;1.85;;
52742;SDS011;55583;53.012;6.556;2022-10-16T02:45:08;9.98;;;2.72;;
52742;SDS011;55583;53.012;6.556;2022-10-16T02:47:35;8.43;;;2.75;;
52742;SDS011;55583;53.012;6.556;2022-10-16T02:50:00;6.28;;;2.50;;
52742;SDS011;55583;53.012;6.556;2022-10-16T02:52:26;6.70;;;2.45;;
52742;SDS011;55583;53.012;6.556;2022-10-16T02:54:52;5.32;;;2.13;;
52742;SDS011;55583;53.012;6.556;2022-10-16T02:57:17;6.93;;;2.28;;
52742;SDS011;55583;53.012;6.556;2022-10-16T02:59:43;7.53;;;2.28;;
52742;SDS011;55583;53.012;6.556;2022-10-16T03:02:09;3.45;;;2.03;;
52742;SDS011;55583;53.012;6.556;2022-10-16T03:04:35;6.93;;;2.10;;
52742;SDS011;55583;53.012;6.556;2022-10-16T03:07:00;10.68;;;3.22;;
52742;SDS011;55583;53.012;6.556;2022-10-16T03:09:26;12.25;;;2.30;;
52742;SDS011;55583;53.012;6.556;2022-10-16T03:11:51;6.70;;;2.10;;
52742;SDS011;55583;53.012;6.556;2022-10-16T03:14:17;9.38;;;2.33;;
52742;SDS011;55583;53.012;6.556;2022-10-16T03:16:43;11.77;;;2.13;;
52742;SDS011;55583;53.012;6.556;2022-10-16T03:19:08;3.92;;;2.22;;
52742;SDS011;55583;53.012;6.556;2022-10-16T03:21:34;10.48;;;2.33;;
52742;SDS011;55583;53.012;6.556;2022-10-16T03:23:59;10.85;;;2.80;;
52742;SDS011;55583;53.012;6.556;2022-10-16T03:26:25;17.92;;;2.65;;
52742;SDS011;55583;53.012;6.556;2022-10-16T03:28:51;4.55;;;2.70;;
52742;SDS011;55583;53.012;6.556;2022-10-16T03:31:16;5.40;;;2.65;;
52742;SDS011;55583;53.012;6.556;2022-10-16T03:33:42;8.38;;;2.30;;
52742;SDS011;55583;53.012;6.556;2022-10-16T03:36:07;7.53;;;2.28;;
52742;SDS011;55583;53.012;6.556;2022-10-16T03:38:33;8.90;;;2.53;;
52742;SDS011;55583;53.012;6.556;2022-10-16T03:40:59;9.75;;;2.50;;
52742;SDS011;55583;53.012;6.556;2022-10-16T03:43:24;6.55;;;2.25;;
52742;SDS011;55583;53.012;6.556;2022-10-16T03:45:50;3.83;;;2.55;;
52742;SDS011;55583;53.012;6.556;2022-10-16T03:48:17;6.82;;;2.83;;
52742;SDS011;55583;53.012;6.556;2022-10-16T03:50:43;12.10;;;3.70;;
52742;SDS011;55583;53.012;6.556;2022-10-16T03:53:09;9.93;;;2.70;;
52742;SDS011;55583;53.012;6.556;2022-10-16T03:55:38;6.82;;;2.35;;
52742;SDS011;55583;53.012;6.556;2022-10-16T03:58:05;4.85;;;2.30;;
52742;SDS011;55583;53.012;6.556;2022-10-16T04:00:31;8.82;;;2.95;;
52742;SDS011;55583;53.012;6.556;2022-10-16T04:02:57;5.20;;;2.53;;
52742;SDS011;55583;53.012;6.556;2022-10-16T04:05:22;5.88;;;2.30;;
52742;SDS011;55583;53.012;6.556;2022-10-16T04:07:48;5.50;;;2.50;;
52742;SDS011;55583;53.012;6.556;2022-10-16T04:10:13;7.35;;;2.63;;
52742;SDS011;55583;53.012;6.556;2022-10-16T04:12:39;9.88;;;2.50;;
52742;SDS011;55583;53.012;6.556;2022-10-16T04:15:05;9.48;;;3.63;;
52742;SDS011;55583;53.012;6.556;2022-10-16T04:17:30;7.32;;;2.33;;
52742;SDS011;55583;53.012;6.556;2022-10-16T04:19:56;6.63;;;2.88;;
52742;SDS011;55583;53.012;6.556;2022-10-16T04:22:22;8.25;;;3.20;;
52742;SDS011;55583;53.012;6.556;2022-10-16T04:24:47;6.38;;;2.90;;
52742;SDS011;55583;53.012;6.556;2022-10-16T04:27:13;9.15;;;3.53;;
52742;SDS011;55583;53.012;6.556;2022-10-16T04:29:38;4.47;;;2.20;;
52742;SDS011;55583;53.012;6.556;2022-10-16T04:32:04;11.63;;;2.80;;
52742;SDS011;55583;53.012;6.556;2022-10-16T04:34:30;6.20;;;2.53;;
52742;SDS011;55583;53.012;6.556;2022-10-16T04:36:55;12.55;;;3.28;;
52742;SDS011;55583;53.012;6.556;2022-10-16T04:39:21;9.00;;;2.38;;
52742;SDS011;55583;53.012;6.556;2022-10-16T04:41:47;13.35;;;2.65;;
52742;SDS011;55583;53.012;6.556;2022-10-16T04:44:12;8.30;;;3.20;;
52742;SDS011;55583;53.012;6.556;2022-10-16T04:46:38;6.18;;;3.42;;
52742;SDS011;55583;53.012;6.556;2022-10-16T04:49:03;8.68;;;3.17;;
52742;SDS011;55583;53.012;6.556;2022-10-16T04:51:29;12.20;;;3.75;;
52742;SDS011;55583;53.012;6.556;2022-10-16T04:53:55;6.68;;;2.67;;
52742;SDS011;55583;53.012;6.556;2022-10-16T04:56:20;5.53;;;2.97;;
52742;SDS011;55583;53.012;6.556;2022-10-16T04:58:46;9.55;;;3.17;;
52742;SDS011;55583;53.012;6.556;2022-10-16T05:01:12;12.48;;;3.53;;
52742;SDS011;55583;53.012;6.556;2022-10-16T05:03:38;4.20;;;3.20;;
52742;SDS011;55583;53.012;6.556;2022-10-16T05:06:07;13.23;;;3.63;;
52742;SDS011;55583;53.012;6.556;2022-10-16T05:08:32;5.47;;;3.10;;
52742;SDS011;55583;53.012;6.556;2022-10-16T05:10:58;12.27;;;3.58;;
52742;SDS011;55583;53.012;6.556;2022-10-16T05:13:24;6.15;;;3.25;;
52742;SDS011;55583;53.012;6.556;2022-10-16T05:15:49;7.50;;;3.10;;
52742;SDS011;55583;53.012;6.556;2022-10-16T05:18:15;11.02;;;3.38;;
52742;SDS011;55583;53.012;6.556;2022-10-16T05:20:41;6.50;;;3.10;;
52742;SDS011;55583;53.012;6.556;2022-10-16T05:23:07;6.47;;;2.65;;
52742;SDS011;55583;53.012;6.556;2022-10-16T05:25:35;10.23;;;3.20;;
52742;SDS011;55583;53.012;6.556;2022-10-16T05:28:01;10.60;;;3.60;;
52742;SDS011;55583;53.012;6.556;2022-10-16T05:30:27;9.05;;;3.38;;
52742;SDS011;55583;53.012;6.556;2022-10-16T05:32:52;8.27;;;2.97;;
52742;SDS011;55583;53.012;6.556;2022-10-16T05:35:18;7.28;;;3.55;;
52742;SDS011;55583;53.012;6.556;2022-10-16T05:37:45;5.00;;;3.05;;
52742;SDS011;55583;53.012;6.556;2022-10-16T05:40:11;6.30;;;3.35;;
52742;SDS011;55583;53.012;6.556;2022-10-16T05:42:38;5.68;;;3.38;;
52742;SDS011;55583;53.012;6.556;2022-10-16T05:45:04;12.70;;;3.45;;
52742;SDS011;55583;53.012;6.556;2022-10-16T05:47:31;8.05;;;3.30;;
52742;SDS011;55583;53.012;6.556;2022-10-16T05:49:57;8.63;;;3.13;;
52742;SDS011;55583;53.012;6.556;2022-10-16T05:52:22;6.80;;;2.85;;
52742;SDS011;55583;53.012;6.556;2022-10-16T05:54:48;11.95;;;3.65;;
52742;SDS011;55583;53.012;6.556;2022-10-16T05:57:13;13.85;;;3.15;;
52742;SDS011;55583;53.012;6.556;2022-10-16T05:59:39;8.73;;;3.47;;
52742;SDS011;55583;53.012;6.556;2022-10-16T06:02:05;5.80;;;3.00;;
52742;SDS011;55583;53.012;6.556;2022-10-16T06:04:30;7.78;;;2.70;;
52742;SDS011;55583;53.012;6.556;2022-10-16T06:06:58;14.80;;;3.80;;
52742;SDS011;55583;53.012;6.556;2022-10-16T06:09:25;9.85;;;3.53;;
52742;SDS011;55583;53.012;6.556;2022-10-16T06:11:51;6.22;;;2.85;;
52742;SDS011;55583;53.012;6.556;2022-10-16T06:14:17;9.23;;;3.42;;
52742;SDS011;55583;53.012;6.556;2022-10-16T06:16:42;8.07;;;3.38;;
52742;SDS011;55583;53.012;6.556;2022-10-16T06:19:08;7.00;;;3.30;;
52742;SDS011;55583;53.012;6.556;2022-10-16T06:21:34;9.82;;;3.58;;
52742;SDS011;55583;53.012;6.556;2022-10-16T06:24:00;7.75;;;3.30;;
52742;SDS011;55583;53.012;6.556;2022-10-16T06:26:26;12.38;;;3.85;;
52742;SDS011;55583;53.012;6.556;2022-10-16T06:28:54;10.30;;;3.10;;
52742;SDS011;55583;53.012;6.556;2022-10-16T06:31:21;6.97;;;3.28;;
52742;SDS011;55583;53.012;6.556;2022-10-16T06:33:50;6.32;;;2.78;;
52742;SDS011;55583;53.012;6.556;2022-10-16T06:36:16;6.03;;;3.38;;
52742;SDS011;55583;53.012;6.556;2022-10-16T06:38:43;6.57;;;3.05;;
52742;SDS011;55583;53.012;6.556;2022-10-16T06:41:11;8.60;;;3.05;;
52742;SDS011;55583;53.012;6.556;2022-10-16T06:43:41;11.43;;;3.50;;
52742;SDS011;55583;53.012;6.556;2022-10-16T06:46:09;6.95;;;2.90;;
52742;SDS011;55583;53.012;6.556;2022-10-16T06:48:36;5.43;;;2.88;;
52742;SDS011;55583;53.012;6.556;2022-10-16T06:51:03;6.25;;;2.47;;
52742;SDS011;55583;53.012;6.556;2022-10-16T06:53:31;8.68;;;3.22;;
52742;SDS011;55583;53.012;6.556;2022-10-16T06:56:06;5.90;;;3.05;;
52742;SDS011;55583;53.012;6.556;2022-10-16T06:58:35;9.25;;;3.30;;
52742;SDS011;55583;53.012;6.556;2022-10-16T07:01:01;6.57;;;2.78;;
52742;SDS011;55583;53.012;6.556;2022-10-16T07:03:27;6.20;;;3.05;;
52742;SDS011;55583;53.012;6.556;2022-10-16T07:05:53;7.55;;;3.17;;
52742;SDS011;55583;53.012;6.556;2022-10-16T07:08:18;8.50;;;3.05;;
52742;SDS011;55583;53.012;6.556;2022-10-16T07:10:44;5.75;;;3.15;;
52742;SDS011;55583;53.012;6.556;2022-10-16T07:13:10;11.32;;;2.95;;
52742;SDS011;55583;53.012;6.556;2022-10-16T07:15:38;8.93;;;3.38;;
52742;SDS011;55583;53.012;6.556;2022-10-16T07:18:05;9.90;;;3.05;;
52742;SDS011;55583;53.012;6.556;2022-10-16T07:20:31;5.80;;;3.15;;
52742;SDS011;55583;53.012;6.556;2022-10-16T07:22:57;5.55;;;2.80;;
52742;SDS011;55583;53.012;6.556;2022-10-16T07:25:22;6.65;;;2.50;;
52742;SDS011;55583;53.012;6.556;2022-10-16T07:27:48;6.97;;;2.70;;
52742;SDS011;55583;53.012;6.556;2022-10-16T07:30:13;4.70;;;2.47;;
52742;SDS011;55583;53.012;6.556;2022-10-16T07:32:39;6.05;;;3.10;;
52742;SDS011;55583;53.012;6.556;2022-10-16T07:35:05;5.55;;;2.83;;
52742;SDS011;55583;53.012;6.556;2022-10-16T07:37:31;4.15;;;2.40;;
52742;SDS011;55583;53.012;6.556;2022-10-16T07:39:56;10.02;;;2.85;;
52742;SDS011;55583;53.012;6.556;2022-10-16T07:42:22;4.80;;;2.28;;
52742;SDS011;55583;53.012;6.556;2022-10-16T07:44:48;4.05;;;2.67;;
52742;SDS011;55583;53.012;6.556;2022-10-16T07:47:13;6.75;;;2.75;;
52742;SDS011;55583;53.012;6.556;2022-10-16T07:49:39;7.88;;;2.20;;
52742;SDS011;55583;53.012;6.556;2022-10-16T07:52:04;5.32;;;2.70;;
52742;SDS011;55583;53.012;6.556;2022-10-16T07:54:30;5.13;;;3.10;;
52742;SDS011;55583;53.012;6.556;2022-10-16T07:56:56;2.40;;;1.98;;
52742;SDS011;55583;53.012;6.556;2022-10-16T07:59:21;6.05;;;3.03;;
52742;SDS011;55583;53.012;6.556;2022-10-16T08:01:48;7.88;;;2.47;;
52742;SDS011;55583;53.012;6.556;2022-10-16T08:04:14;6.22;;;2.15;;
52742;SDS011;55583;53.012;6.556;2022-10-16T08:06:40;8.82;;;2.30;;
52742;SDS011;55583;53.012;6.556;2022-10-16T08:09:06;3.88;;;2.08;;
52742;SDS011;55583;53.012;6.556;2022-10-16T08:11:32;9.60;;;2.30;;
52742;SDS011;55583;53.012;6.556;2022-10-16T08:13:58;6.65;;;2.47;;
52742;SDS011;55583;53.012;6.556;2022-10-16T08:16:24;6.55;;;1.85;;
52742;SDS011;55583;53.012;6.556;2022-10-16T08:18:50;6.05;;;1.73;;
52742;SDS011;55583;53.012;6.556;2022-10-16T08:21:17;7.47;;;2.22;;
52742;SDS011;55583;53.012;6.556;2022-10-16T08:23:44;2.88;;;1.25;;
52742;SDS011;55583;53.012;6.556;2022-10-16T08:26:10;5.95;;;1.80;;
52742;SDS011;55583;53.012;6.556;2022-10-16T08:28:37;4.60;;;1.70;;
52742;SDS011;55583;53.012;6.556;2022-10-16T08:31:07;6.28;;;1.95;;
52742;SDS011;55583;53.012;6.556;2022-10-16T08:33:34;4.00;;;1.85;;
52742;SDS011;55583;53.012;6.556;2022-10-16T08:36:03;2.90;;;1.38;;
52742;SDS011;55583;53.012;6.556;2022-10-16T08:38:29;4.75;;;1.30;;
52742;SDS011;55583;53.012;6.556;2022-10-16T08:41:08;7.97;;;1.83;;
52742;SDS011;55583;53.012;6.556;2022-10-16T08:49:07;5.05;;;1.70;;
52742;SDS011;55583;53.012;6.556;2022-10-16T08:51:38;4.47;;;1.48;;
52742;SDS011;55583;53.012;6.556;2022-10-16T08:56:54;7.53;;;2.47;;
52742;SDS011;55583;53.012;6.556;2022-10-16T08:59:21;7.30;;;1.90;;
52742;SDS011;55583;53.012;6.556;2022-10-16T09:01:48;3.33;;;1.20;;
52742;SDS011;55583;53.012;6.556;2022-10-16T09:07:24;10.05;;;2.30;;
52742;SDS011;55583;53.012;6.556;2022-10-16T09:10:22;9.13;;;2.17;;
52742;SDS011;55583;53.012;6.556;2022-10-16T09:18:48;6.35;;;1.67;;
52742;SDS011;55583;53.012;6.556;2022-10-16T09:21:35;7.13;;;1.65;;
52742;SDS011;55583;53.012;6.556;2022-10-16T09:26:39;9.38;;;1.67;;
52742;SDS011;55583;53.012;6.556;2022-10-16T09:29:05;10.05;;;1.67;;
52742;SDS011;55583;53.012;6.556;2022-10-16T09:31:33;4.68;;;1.65;;
52742;SDS011;55583;53.012;6.556;2022-10-16T09:34:02;11.48;;;1.95;;
52742;SDS011;55583;53.012;6.556;2022-10-16T09:36:39;13.05;;;2.20;;
52742;SDS011;55583;53.012;6.556;2022-10-16T09:39:08;12.75;;;1.83;;
52742;SDS011;55583;53.012;6.556;2022-10-16T09:41:37;5.05;;;1.85;;
52742;SDS011;55583;53.012;6.556;2022-10-16T09:44:17;9.07;;;1.77;;
52742;SDS011;55583;53.012;6.556;2022-10-16T09:46:47;10.65;;;1.98;;
52742;SDS011;55583;53.012;6.556;2022-10-16T09:49:23;10.13;;;2.33;;
52742;SDS011;55583;53.012;6.556;2022-10-16T09:51:50;9.45;;;2.92;;
52742;SDS011;55583;53.012;6.556;2022-10-16T09:54:27;13.68;;;2.20;;
52742;SDS011;55583;53.012;6.556;2022-10-16T09:57:03;7.72;;;2.28;;
52742;SDS011;55583;53.012;6.556;2022-10-16T09:59:32;10.07;;;2.40;;
52742;SDS011;55583;53.012;6.556;2022-10-16T10:02:01;12.65;;;2.72;;
52742;SDS011;55583;53.012;6.556;2022-10-16T10:04:37;11.27;;;2.45;;
52742;SDS011;55583;53.012;6.556;2022-10-16T10:07:05;10.25;;;2.15;;
52742;SDS011;55583;53.012;6.556;2022-10-16T10:09:44;8.38;;;2.53;;
52742;SDS011;55583;53.012;6.556;2022-10-16T10:12:21;10.90;;;2.30;;
52742;SDS011;55583;53.012;6.556;2022-10-16T10:14:49;8.55;;;2.55;;
52742;SDS011;55583;53.012;6.556;2022-10-16T10:17:18;12.02;;;2.63;;
52742;SDS011;55583;53.012;6.556;2022-10-16T10:19:55;11.15;;;2.33;;
52742;SDS011;55583;53.012;6.556;2022-10-16T10:22:31;11.43;;;2.38;;
52742;SDS011;55583;53.012;6.556;2022-10-16T10:35:22;13.95;;;2.75;;
52742;SDS011;55583;53.012;6.556;2022-10-16T10:38:03;12.85;;;3.42;;
52742;SDS011;55583;53.012;6.556;2022-10-16T10:40:45;8.13;;;2.08;;
52742;SDS011;55583;53.012;6.556;2022-10-16T10:46:15;10.60;;;2.50;;
52742;SDS011;55583;53.012;6.556;2022-10-16T10:51:51;14.50;;;3.22;;
52742;SDS011;55583;53.012;6.556;2022-10-16T10:57:23;13.30;;;2.50;;
52742;SDS011;55583;53.012;6.556;2022-10-16T10:59:58;15.02;;;2.80;;
52742;SDS011;55583;53.012;6.556;2022-10-16T11:02:40;13.32;;;2.80;;
52742;SDS011;55583;53.012;6.556;2022-10-16T11:05:15;11.57;;;2.75;;
52742;SDS011;55583;53.012;6.556;2022-10-16T11:08:00;8.93;;;2.45;;
52742;SDS011;55583;53.012;6.556;2022-10-16T11:16:16;12.88;;;2.63;;
52742;SDS011;55583;53.012;6.556;2022-10-16T11:21:25;11.30;;;2.38;;
52742;SDS011;55583;53.012;6.556;2022-10-16T11:23:59;14.13;;;2.67;;
52742;SDS011;55583;53.012;6.556;2022-10-16T11:26:33;12.23;;;3.15;;
52742;SDS011;55583;53.012;6.556;2022-10-16T11:29:04;9.63;;;2.50;;
52742;SDS011;55583;53.012;6.556;2022-10-16T11:31:47;10.45;;;2.95;;
52742;SDS011;55583;53.012;6.556;2022-10-16T11:37:11;10.00;;;3.00;;
52742;SDS011;55583;53.012;6.556;2022-10-16T11:39:42;10.98;;;2.72;;
52742;SDS011;55583;53.012;6.556;2022-10-16T11:42:22;13.35;;;3.83;;
52742;SDS011;55583;53.012;6.556;2022-10-16T11:45:00;13.45;;;2.80;;
52742;SDS011;55583;53.012;6.556;2022-10-16T11:47:45;8.38;;;2.40;;
52742;SDS011;55583;53.012;6.556;2022-10-16T11:50:22;9.13;;;2.25;;
52742;SDS011;55583;53.012;6.556;2022-10-16T11:55:52;11.98;;;3.15;;
52742;SDS011;55583;53.012;6.556;2022-10-16T11:58:22;10.10;;;2.20;;
52742;SDS011;55583;53.012;6.556;2022-10-16T12:01:14;16.48;;;3.08;;
52742;SDS011;55583;53.012;6.556;2022-10-16T12:06:56;11.32;;;2.25;;
52742;SDS011;55583;53.012;6.556;2022-10-16T12:09:27;10.80;;;2.50;;
52742;SDS011;55583;53.012;6.556;2022-10-16T12:11:55;12.38;;;2.67;;
52742;SDS011;55583;53.012;6.556;2022-10-16T12:17:42;11.07;;;2.67;;
52742;SDS011;55583;53.012;6.556;2022-10-16T12:19:58;11.45;;;2.50;;
52742;SDS011;55583;53.012;6.556;2022-10-16T12:22:52;11.75;;;3.17;;
52742;SDS011;55583;53.012;6.556;2022-10-16T12:28:02;9.00;;;2.22;;
52742;SDS011;55583;53.012;6.556;2022-10-16T12:30:34;16.15;;;3.13;;
52742;SDS011;55583;53.012;6.556;2022-10-16T12:33:05;9.30;;;2.78;;
52742;SDS011;55583;53.012;6.556;2022-10-16T12:35:45;7.65;;;2.20;;
52742;SDS011;55583;53.012;6.556;2022-10-16T12:38:15;7.78;;;2.58;;
52742;SDS011;55583;53.012;6.556;2022-10-16T12:41:07;10.52;;;2.80;;
52742;SDS011;55583;53.012;6.556;2022-10-16T12:48:39;10.25;;;2.22;;
52742;SDS011;55583;53.012;6.556;2022-10-16T12:51:19;8.85;;;2.40;;
52742;SDS011;55583;53.012;6.556;2022-10-16T12:56:41;10.10;;;2.35;;
52742;SDS011;55583;53.012;6.556;2022-10-16T13:13:16;6.38;;;2.33;;
52742;SDS011;55583;53.012;6.556;2022-10-16T13:18:59;9.73;;;2.53;;
52742;SDS011;55583;53.012;6.556;2022-10-16T13:24:49;10.45;;;2.50;;
52742;SDS011;55583;53.012;6.556;2022-10-16T13:30:24;13.07;;;2.10;;
52742;SDS011;55583;53.012;6.556;2022-10-16T13:33:53;10.18;;;1.95;;
52742;SDS011;55583;53.012;6.556;2022-10-16T13:36:02;10.07;;;2.20;;
52742;SDS011;55583;53.012;6.556;2022-10-16T13:38:30;7.55;;;1.92;;
52742;SDS011;55583;53.012;6.556;2022-10-16T13:43:36;12.32;;;2.70;;
52742;SDS011;55583;53.012;6.556;2022-10-16T13:46:20;9.25;;;2.20;;
52742;SDS011;55583;53.012;6.556;2022-10-16T13:49:00;13.05;;;2.58;;
52742;SDS011;55583;53.012;6.556;2022-10-16T13:51:29;8.40;;;2.50;;
52742;SDS011;55583;53.012;6.556;2022-10-16T13:53:56;11.05;;;3.03;;
52742;SDS011;55583;53.012;6.556;2022-10-16T13:56:25;12.27;;;3.08;;
52742;SDS011;55583;53.012;6.556;2022-10-16T13:58:59;9.70;;;2.58;;
52742;SDS011;55583;53.012;6.556;2022-10-16T14:01:29;10.10;;;2.55;;
52742;SDS011;55583;53.012;6.556;2022-10-16T14:04:05;14.13;;;2.72;;
52742;SDS011;55583;53.012;6.556;2022-10-16T14:06:33;8.15;;;2.47;;
52742;SDS011;55583;53.012;6.556;2022-10-16T14:09:08;7.90;;;2.45;;
52742;SDS011;55583;53.012;6.556;2022-10-16T14:12:02;8.73;;;2.75;;
52742;SDS011;55583;53.012;6.556;2022-10-16T14:14:43;16.60;;;4.18;;
52742;SDS011;55583;53.012;6.556;2022-10-16T14:19:54;11.80;;;2.63;;
52742;SDS011;55583;53.012;6.556;2022-10-16T14:22:32;13.80;;;2.53;;
52742;SDS011;55583;53.012;6.556;2022-10-16T14:25:47;11.20;;;3.13;;
52742;SDS011;55583;53.012;6.556;2022-10-16T14:28:14;16.05;;;4.38;;
52742;SDS011;55583;53.012;6.556;2022-10-16T14:30:52;12.38;;;4.13;;
52742;SDS011;55583;53.012;6.556;2022-10-16T14:36:04;16.40;;;3.75;;
52742;SDS011;55583;53.012;6.556;2022-10-16T14:38:40;10.80;;;2.00;;
52742;SDS011;55583;53.012;6.556;2022-10-16T14:41:12;11.40;;;2.63;;
52742;SDS011;55583;53.012;6.556;2022-10-16T14:43:42;11.73;;;2.28;;
52742;SDS011;55583;53.012;6.556;2022-10-16T14:46:15;16.58;;;2.55;;
52742;SDS011;55583;53.012;6.556;2022-10-16T14:48:44;13.00;;;2.85;;
52742;SDS011;55583;53.012;6.556;2022-10-16T14:51:16;15.40;;;3.53;;
52742;SDS011;55583;53.012;6.556;2022-10-16T14:53:42;12.48;;;2.95;;
52742;SDS011;55583;53.012;6.556;2022-10-16T14:56:08;14.73;;;2.58;;
52742;SDS011;55583;53.012;6.556;2022-10-16T14:58:42;9.35;;;2.63;;
52742;SDS011;55583;53.012;6.556;2022-10-16T15:01:09;14.32;;;2.90;;
52742;SDS011;55583;53.012;6.556;2022-10-16T15:03:36;19.02;;;3.20;;
52742;SDS011;55583;53.012;6.556;2022-10-16T15:06:15;11.90;;;2.33;;
52742;SDS011;55583;53.012;6.556;2022-10-16T15:08:41;11.30;;;2.63;;
52742;SDS011;55583;53.012;6.556;2022-10-16T15:11:14;11.88;;;2.80;;
52742;SDS011;55583;53.012;6.556;2022-10-16T15:13:44;21.02;;;7.60;;
52742;SDS011;55583;53.012;6.556;2022-10-16T15:16:11;16.40;;;4.10;;
52742;SDS011;55583;53.012;6.556;2022-10-16T15:18:37;15.00;;;5.10;;
52742;SDS011;55583;53.012;6.556;2022-10-16T15:21:03;13.13;;;3.30;;
52742;SDS011;55583;53.012;6.556;2022-10-16T15:23:38;11.52;;;3.30;;
52742;SDS011;55583;53.012;6.556;2022-10-16T15:26:03;15.48;;;3.55;;
52742;SDS011;55583;53.012;6.556;2022-10-16T15:28:29;13.43;;;3.30;;
52742;SDS011;55583;53.012;6.556;2022-10-16T15:30:55;13.85;;;3.08;;
52742;SDS011;55583;53.012;6.556;2022-10-16T15:33:23;20.17;;;3.22;;
52742;SDS011;55583;53.012;6.556;2022-10-16T15:35:52;13.13;;;2.80;;
52742;SDS011;55583;53.012;6.556;2022-10-16T15:38:19;12.15;;;3.47;;
52742;SDS011;55583;53.012;6.556;2022-10-16T15:40:47;14.93;;;2.80;;
52742;SDS011;55583;53.012;6.556;2022-10-16T15:43:13;17.58;;;2.78;;
52742;SDS011;55583;53.012;6.556;2022-10-16T15:45:39;13.63;;;3.58;;
52742;SDS011;55583;53.012;6.556;2022-10-16T15:48:05;14.32;;;2.78;;
52742;SDS011;55583;53.012;6.556;2022-10-16T15:50:31;19.42;;;4.70;;
52742;SDS011;55583;53.012;6.556;2022-10-16T15:52:57;17.92;;;4.95;;
52742;SDS011;55583;53.012;6.556;2022-10-16T15:55:23;19.58;;;5.00;;
52742;SDS011;55583;53.012;6.556;2022-10-16T15:57:52;23.45;;;5.40;;
52742;SDS011;55583;53.012;6.556;2022-10-16T16:00:18;14.75;;;3.70;;
52742;SDS011;55583;53.012;6.556;2022-10-16T16:02:50;21.25;;;5.00;;
52742;SDS011;55583;53.012;6.556;2022-10-16T16:05:17;21.55;;;4.53;;
52742;SDS011;55583;53.012;6.556;2022-10-16T16:07:43;16.95;;;4.13;;
52742;SDS011;55583;53.012;6.556;2022-10-16T16:10:10;17.10;;;4.38;;
52742;SDS011;55583;53.012;6.556;2022-10-16T16:12:36;16.63;;;4.70;;
52742;SDS011;55583;53.012;6.556;2022-10-16T16:15:06;17.30;;;3.97;;
52742;SDS011;55583;53.012;6.556;2022-10-16T16:17:33;21.65;;;3.63;;
52742;SDS011;55583;53.012;6.556;2022-10-16T16:20:00;12.10;;;3.67;;
52742;SDS011;55583;53.012;6.556;2022-10-16T16:22:26;15.45;;;3.42;;
52742;SDS011;55583;53.012;6.556;2022-10-16T16:24:52;13.68;;;3.45;;
52742;SDS011;55583;53.012;6.556;2022-10-16T16:27:18;17.70;;;4.45;;
52742;SDS011;55583;53.012;6.556;2022-10-16T16:29:44;15.75;;;3.85;;
52742;SDS011;55583;53.012;6.556;2022-10-16T16:32:10;18.27;;;6.28;;
52742;SDS011;55583;53.012;6.556;2022-10-16T16:34:36;28.08;;;6.22;;
52742;SDS011;55583;53.012;6.556;2022-10-16T16:37:02;18.80;;;4.45;;
52742;SDS011;55583;53.012;6.556;2022-10-16T16:39:27;18.35;;;4.93;;
52742;SDS011;55583;53.012;6.556;2022-10-16T16:41:56;20.48;;;4.53;;
52742;SDS011;55583;53.012;6.556;2022-10-16T16:44:23;21.17;;;4.10;;
52742;SDS011;55583;53.012;6.556;2022-10-16T16:46:49;23.63;;;5.40;;
52742;SDS011;55583;53.012;6.556;2022-10-16T16:49:15;19.25;;;5.00;;
52742;SDS011;55583;53.012;6.556;2022-10-16T16:51:41;20.13;;;6.55;;
52742;SDS011;55583;53.012;6.556;2022-10-16T16:54:07;21.15;;;7.07;;